Time;durP1;ratioP1;P1;durP2;ratioP2;P2;SDS_P1;SDS_P2;PMS_P1;PMS_P2;Temp;Humidity;BMP_temperature;BMP_pressure;BME280_temperature;BME280_humidity;BME280_pressure;Samples;Min_cycle;Max_cycle;Signal;HPM_P1;HPM_P2
2021/06/29 00:00:51;;;;;;;;;;;;;;;24.47;52.42;100816.78;2052622;28;4077;-84
2021/06/29 00:02:18;;;;;;;;;;;;;;;24.48;52.64;100811.91;2053697;28;3939;-79
2021/06/29 00:03:44;;;;;;;;;;;;;;;24.49;52.69;100819.28;2053623;28;4024;-79
2021/06/29 00:05:10;;;;;;;;;;;;;;;24.48;52.71;100811.91;2053823;28;3838;-77
2021/06/29 00:06:36;;;;;;;;;;;;;;;24.48;52.82;100812.75;2053453;28;3803;-76
2021/06/29 00:08:02;;;;;;;;;;;;;;;24.48;52.90;100812.75;2052195;28;4039;-79
2021/06/29 00:09:29;;;;;;;;;;;;;;;24.50;52.96;100815.22;2052456;28;3965;-79
2021/06/29 00:10:55;;;;;;;;;;;;;;;24.49;53.01;100817.25;2051501;28;4074;-78
2021/06/29 00:12:22;;;;;;;;;;;;;;;24.50;53.07;100818.88;2054029;28;3832;-82
2021/06/29 00:13:48;;;;;;;;;;;;;;;24.50;53.01;100821.75;2052624;28;4031;-77
2021/06/29 00:15:14;;;;;;;;;;;;;;;24.50;53.08;100815.22;2054116;28;3850;-77
2021/06/29 00:16:41;;;;;;;;;;;;;;;24.50;53.19;100818.06;2053762;28;4279;-79
2021/06/29 00:18:07;;;;;;;;;;;;;;;24.50;53.15;100820.94;2052979;28;3844;-86
2021/06/29 00:19:34;;;;;;;;;;;;;;;24.50;53.19;100809.50;2060351;28;3852;-87
2021/06/29 00:21:00;;;;;;;;;;;;;;;24.50;53.24;100816.03;2055002;28;4181;-81
2021/06/29 00:22:27;;;;;;;;;;;;;;;24.50;53.11;100809.50;2055208;28;3817;-83
2021/06/29 00:23:53;;;;;;;;;;;;;;;24.51;53.15;100811.13;2052253;28;4053;-81
2021/06/29 00:25:20;;;;;;;;;;;;;;;24.52;53.19;100807.91;2054716;28;3879;-86
2021/06/29 00:26:47;;;;;;;;;;;;;;;24.52;53.19;100807.09;2052072;28;4223;-82
2021/06/29 00:28:14;;;;;;;;;;;;;;;24.50;53.19;100804.59;2053135;28;3779;-88
2021/06/29 00:29:41;;;;;;;;;;;;;;;24.51;53.16;100805.41;2052339;28;4094;-81
2021/06/29 00:31:08;;;;;;;;;;;;;;;24.51;53.16;100808.28;2051883;28;4026;-77
2021/06/29 00:32:37;;;;;;;;;;;;;;;24.51;53.15;100805.41;2053210;28;3823;-84
2021/06/29 00:34:05;;;;;;;;;;;;;;;24.51;53.19;100808.28;2053891;28;4266;-81
2021/06/29 00:35:32;;;;;;;;;;;;;;;24.51;53.17;100811.13;2053700;28;4107;-73
2021/06/29 00:36:58;;;;;;;;;;;;;;;24.51;53.32;100809.13;2051219;28;4097;-82
2021/06/29 00:38:24;;;;;;;;;;;;;;;24.51;53.23;100805.41;2050630;28;4019;-79
2021/06/29 00:39:50;;;;;;;;;;;;;;;24.51;53.22;100802.56;2053431;28;4277;-78
2021/06/29 00:41:16;;;;;;;;;;;;;;;24.50;53.22;100810.31;2052796;28;4727;-76
2021/06/29 00:42:42;;;;;;;;;;;;;;;24.51;53.21;100808.28;2054168;28;4207;-75
2021/06/29 00:44:09;;;;;;;;;;;;;;;24.52;53.24;100807.09;2053421;28;3913;-80
2021/06/29 00:45:36;;;;;;;;;;;;;;;24.52;53.29;100812.81;2052967;28;3957;-79
2021/06/29 00:47:02;;;;;;;;;;;;;;;24.53;53.24;100805.88;2052900;28;4029;-76
2021/06/29 00:48:29;;;;;;;;;;;;;;;24.52;53.27;100802.19;2052905;28;4199;-78
2021/06/29 00:49:55;;;;;;;;;;;;;;;24.52;53.36;100809.94;2052785;28;4047;-77
2021/06/29 00:51:22;;;;;;;;;;;;;;;24.51;53.26;100805.41;2053850;28;3880;-79
2021/06/29 00:52:49;;;;;;;;;;;;;;;24.51;53.31;100808.28;2052825;28;4105;-79
2021/06/29 00:54:16;;;;;;;;;;;;;;;24.52;53.26;100809.94;2053121;28;3987;-76
2021/06/29 00:55:42;;;;;;;;;;;;;;;24.50;53.28;100801.72;2052138;28;4240;-77
2021/06/29 00:57:10;;;;;;;;;;;;;;;24.50;53.36;100804.59;2052412;28;4027;-77
2021/06/29 00:58:36;;;;;;;;;;;;;;;24.50;53.30;100809.50;2053585;28;3980;-80
2021/06/29 01:00:04;;;;;;;;;;;;;;;24.49;53.06;100802.94;2053666;28;4208;-76
2021/06/29 01:01:31;;;;;;;;;;;;;;;24.49;52.89;100807.84;2053419;28;4032;-78
2021/06/29 01:02:58;;;;;;;;;;;;;;;24.49;52.88;100797.22;2052488;28;4083;-75
2021/06/29 01:04:25;;;;;;;;;;;;;;;24.49;53.05;100805.00;2052568;28;3829;-78
2021/06/29 01:05:51;;;;;;;;;;;;;;;24.49;52.73;100796.41;2052564;28;4036;-80
2021/06/29 01:07:19;;;;;;;;;;;;;;;24.49;52.55;100797.22;2053684;28;4021;-81
2021/06/29 01:08:45;;;;;;;;;;;;;;;24.49;52.31;100790.69;2052553;28;4063;-82
2021/06/29 01:10:12;;;;;;;;;;;;;;;24.48;52.28;100786.16;2053264;28;3940;-79
2021/06/29 01:11:38;;;;;;;;;;;;;;;24.48;52.28;100789.88;2053392;28;4093;-82
2021/06/29 01:13:04;;;;;;;;;;;;;;;24.49;52.45;100790.69;2054268;28;4029;-77
2021/06/29 01:14:32;;;;;;;;;;;;;;;24.48;52.67;100789.00;2052756;28;3783;-83
2021/06/29 01:15:58;;;;;;;;;;;;;;;24.47;52.78;100799.63;2053047;28;4094;-78
2021/06/29 01:17:25;;;;;;;;;;;;;;;24.47;52.71;100793.09;2053517;28;3802;-76
2021/06/29 01:18:51;;;;;;;;;;;;;;;24.48;52.70;100794.72;2051299;28;4485;-77
2021/06/29 01:20:22;;;;;;;;;;;;;;;24.47;52.83;100791.06;2053417;28;3831;-73
2021/06/29 01:21:52;;;;;;;;;;;;;;;24.45;52.42;100796.31;2053272;28;4248;-72
2021/06/29 01:23:21;;;;;;;;;;;;;;;24.43;52.31;100793.84;2052549;28;3953;-77
2021/06/29 01:24:52;;;;;;;;;;;;;;;24.44;52.40;100791.81;2052622;28;4051;-80
2021/06/29 01:26:23;;;;;;;;;;;;;;;24.44;52.55;100795.50;2052967;28;3890;-90
2021/06/29 01:28:05;;;;;;;;;;;;;;;24.44;52.44;100792.63;2051540;28;4058;-83
2021/06/29 01:31:08;;;;;;;;;;;;;;;24.43;52.31;100791.00;2051802;28;4048;-91
2021/06/29 01:32:37;;;;;;;;;;;;;;;24.43;52.18;100793.00;2051570;28;3823;-89
2021/06/29 01:34:06;;;;;;;;;;;;;;;24.42;52.15;100792.16;2052413;28;4069;-78
2021/06/29 01:35:33;;;;;;;;;;;;;;;24.42;52.11;100797.88;2053581;28;3967;-88
2021/06/29 01:36:59;;;;;;;;;;;;;;;24.43;52.17;100801.56;2051026;28;4028;-79
2021/06/29 01:38:26;;;;;;;;;;;;;;;24.43;52.04;100805.28;2052702;28;3825;-80
2021/06/29 01:39:55;;;;;;;;;;;;;;;24.43;52.11;100804.44;2053371;28;4266;-78
2021/06/29 01:41:24;;;;;;;;;;;;;;;24.41;52.14;100804.78;2051029;28;3812;-78
2021/06/29 01:42:51;;;;;;;;;;;;;;;24.41;52.05;100801.94;2052111;28;4052;-76
2021/06/29 01:44:25;;;;;;;;;;;;;;;24.41;51.99;100795.41;2050136;28;4024;-79
2021/06/29 01:45:53;;;;;;;;;;;;;;;24.40;52.02;100799.47;2051536;28;4057;-77
2021/06/29 01:47:29;;;;;;;;;;;;;;;24.40;52.08;100799.47;2050875;28;3870;-79
2021/06/29 01:48:55;;;;;;;;;;;;;;;24.40;51.96;100800.28;2051923;28;4025;-78
2021/06/29 01:50:22;;;;;;;;;;;;;;;24.39;51.91;100792.91;2051899;28;3808;-79
2021/06/29 01:51:48;;;;;;;;;;;;;;;24.39;52.12;100798.63;2052048;28;4040;-78
2021/06/29 01:53:14;;;;;;;;;;;;;;;24.39;52.14;100794.94;2052465;28;4013;-78
2021/06/29 01:54:40;;;;;;;;;;;;;;;24.38;52.12;100791.25;2049107;28;4086;-78
2021/06/29 01:56:14;;;;;;;;;;;;;;;24.38;52.12;100791.25;2052639;28;3890;-79
2021/06/29 01:57:44;;;;;;;;;;;;;;;24.38;52.08;100790.44;2051387;28;4201;-84
2021/06/29 01:59:13;;;;;;;;;;;;;;;24.37;52.25;100788.75;2052430;28;3825;-89
2021/06/29 02:00:39;;;;;;;;;;;;;;;24.37;52.15;100786.75;2052218;28;4044;-90
2021/06/29 02:02:07;;;;;;;;;;;;;;;24.38;52.03;100790.44;2052052;28;4113;-89
2021/06/29 02:03:33;;;;;;;;;;;;;;;24.38;52.09;100796.16;2053195;28;4066;-87
2021/06/29 02:05:01;;;;;;;;;;;;;;;24.37;52.08;100795.34;2051109;28;4226;-89
2021/06/29 02:06:27;;;;;;;;;;;;;;;24.38;52.12;100794.13;2052959;28;4088;-89
2021/06/29 02:07:53;;;;;;;;;;;;;;;24.38;52.09;100801.88;2052701;28;4248;-90
2021/06/29 02:09:21;;;;;;;;;;;;;;;24.37;52.07;100798.19;2052575;28;4397;-89
2021/06/29 02:10:47;;;;;;;;;;;;;;;24.36;52.08;100801.41;2052550;28;4251;-90
2021/06/29 02:12:14;;;;;;;;;;;;;;;24.35;52.13;100797.75;2053280;28;4094;-90
2021/06/29 02:13:40;;;;;;;;;;;;;;;24.36;52.04;100802.25;2051762;28;4214;-82
2021/06/29 02:15:06;;;;;;;;;;;;;;;24.35;52.04;100797.75;2052172;28;4062;-76
2021/06/29 02:16:32;;;;;;;;;;;;;;;24.35;52.07;100794.88;2052726;28;4063;-76
2021/06/29 02:17:59;;;;;;;;;;;;;;;24.36;52.08;100804.28;2052445;28;4087;-76
2021/06/29 02:19:25;;;;;;;;;;;;;;;24.36;52.14;100802.25;2052019;28;4051;-76
2021/06/29 02:20:52;;;;;;;;;;;;;;;24.35;52.16;100802.63;2053632;28;4985;-76
2021/06/29 02:22:18;;;;;;;;;;;;;;;24.35;52.07;100797.75;2052512;28;4001;-76
2021/06/29 02:23:44;;;;;;;;;;;;;;;24.35;52.11;100806.31;2052142;28;4024;-75
2021/06/29 02:25:10;;;;;;;;;;;;;;;24.36;52.07;100807.97;2052141;28;3822;-76
2021/06/29 02:26:38;;;;;;;;;;;;;;;24.36;52.21;100813.69;2052296;28;4161;-76
2021/06/29 02:28:04;;;;;;;;;;;;;;;24.36;52.14;100810.81;2051588;28;4068;-74
2021/06/29 02:29:32;;;;;;;;;;;;;;;24.36;52.00;100815.72;2051464;28;4400;-81
2021/06/29 02:30:59;;;;;;;;;;;;;;;24.35;52.12;100816.94;2052866;28;4060;-87
2021/06/29 02:32:26;;;;;;;;;;;;;;;24.36;52.14;100821.44;2053416;28;4388;-81
2021/06/29 02:33:53;;;;;;;;;;;;;;;24.34;52.03;100813.25;2052204;28;4310;-81
2021/06/29 02:35:20;;;;;;;;;;;;;;;24.35;52.15;100820.63;2051814;28;3828;-83
2021/06/29 02:36:48;;;;;;;;;;;;;;;24.36;52.18;100815.72;2052813;28;4403;-78
2021/06/29 02:38:14;;;;;;;;;;;;;;;24.36;52.25;100816.53;2053420;28;4015;-89
2021/06/29 02:39:40;;;;;;;;;;;;;;;24.37;52.17;100818.22;2052420;28;4067;-87
2021/06/29 02:41:08;;;;;;;;;;;;;;;24.36;52.19;100819.41;2051046;28;3894;-79
2021/06/29 02:42:34;;;;;;;;;;;;;;;24.37;52.29;100823.94;2051461;28;4068;-84
2021/06/29 02:44:00;;;;;;;;;;;;;;;24.37;52.31;100821.06;2052114;28;4034;-84
2021/06/29 02:45:27;;;;;;;;;;;;;;;24.37;52.22;100823.06;2052455;28;4038;-85
2021/06/29 02:46:54;;;;;;;;;;;;;;;24.36;52.32;100827.97;2051920;28;4044;-84
2021/06/29 02:48:20;;;;;;;;;;;;;;;24.36;52.28;100822.25;2052385;28;3972;-79
2021/06/29 02:49:47;;;;;;;;;;;;;;;24.37;52.27;100814.50;2053105;28;4153;-85
2021/06/29 02:51:14;;;;;;;;;;;;;;;24.36;52.27;100819.41;2052805;28;4061;-78
2021/06/29 02:52:40;;;;;;;;;;;;;;;24.35;52.41;100817.75;2052028;28;4116;-78
2021/06/29 02:54:06;;;;;;;;;;;;;;;24.36;52.44;100810.00;2052265;28;4090;-79
2021/06/29 02:55:34;;;;;;;;;;;;;;;24.36;52.50;100815.72;2052532;28;3887;-79
2021/06/29 02:57:00;;;;;;;;;;;;;;;24.36;52.76;100816.53;2051130;28;4020;-86
2021/06/29 02:58:27;;;;;;;;;;;;;;;24.36;52.71;100810.81;2052322;28;3915;-80
2021/06/29 02:59:53;;;;;;;;;;;;;;;24.37;52.70;100805.91;2052527;28;4441;-81
2021/06/29 03:01:19;;;;;;;;;;;;;;;24.36;52.70;100813.69;2052464;28;4087;-82
2021/06/29 03:02:46;;;;;;;;;;;;;;;24.37;52.76;100818.22;2052110;28;4066;-88
2021/06/29 03:04:12;;;;;;;;;;;;;;;24.36;52.73;100816.53;2051045;28;4067;-89
2021/06/29 03:05:39;;;;;;;;;;;;;;;24.38;52.80;100816.19;2052247;28;4926;-89
2021/06/29 03:07:05;;;;;;;;;;;;;;;24.37;52.87;100818.22;2051609;28;3825;-88
2021/06/29 03:08:32;;;;;;;;;;;;;;;24.37;52.94;100806.78;2052932;28;3859;-87
2021/06/29 03:09:58;;;;;;;;;;;;;;;24.37;52.95;100812.50;2052078;28;4237;-83
2021/06/29 03:11:24;;;;;;;;;;;;;;;24.37;53.06;100803.06;2051398;28;3869;-84
2021/06/29 03:12:50;;;;;;;;;;;;;;;24.37;53.06;100805.91;2052519;28;4083;-90
2021/06/29 03:14:18;;;;;;;;;;;;;;;24.37;53.09;100809.63;2051562;28;4039;-88
2021/06/29 03:15:44;;;;;;;;;;;;;;;24.37;53.09;100814.50;2053013;28;4109;-88
2021/06/29 03:17:11;;;;;;;;;;;;;;;24.36;53.09;100810.81;2052402;28;3809;-88
2021/06/29 03:18:37;;;;;;;;;;;;;;;24.36;53.10;100805.09;2052708;28;3934;-88
2021/06/29 03:20:04;;;;;;;;;;;;;;;24.36;53.12;100804.28;2051557;28;4078;-86
2021/06/29 03:21:32;;;;;;;;;;;;;;;24.34;53.19;100804.66;2053448;28;3833;-87
2021/06/29 03:22:58;;;;;;;;;;;;;;;24.35;53.24;100803.47;2051371;28;4056;-86
2021/06/29 03:24:25;;;;;;;;;;;;;;;24.36;53.28;100795.69;2051499;28;3911;-87
2021/06/29 03:38:43;;;;;;;;;;;;;;;24.37;53.62;100795.34;2047258;28;4582;-80
2021/06/29 03:40:09;;;;;;;;;;;;;;;24.38;53.67;100787.56;2052507;28;3811;-81
2021/06/29 03:41:35;;;;;;;;;;;;;;;24.38;53.63;100796.97;2053997;28;3790;-81
2021/06/29 03:43:01;;;;;;;;;;;;;;;24.37;53.61;100785.91;2052899;28;4054;-81
2021/06/29 03:44:28;;;;;;;;;;;;;;;24.37;53.65;100780.19;2054160;28;3908;-81
2021/06/29 03:45:55;;;;;;;;;;;;;;;24.36;53.70;100785.09;2053956;28;4996;-81
2021/06/29 03:47:23;;;;;;;;;;;;;;;24.36;53.71;100784.25;2054522;28;3861;-82
2021/06/29 03:48:49;;;;;;;;;;;;;;;24.37;53.68;100791.63;2053150;28;4040;-79
2021/06/29 03:50:15;;;;;;;;;;;;;;;24.35;53.64;100783.44;2053726;28;4074;-83
2021/06/29 03:51:42;;;;;;;;;;;;;;;24.36;53.63;100787.94;2053399;28;4086;-81
2021/06/29 03:53:08;;;;;;;;;;;;;;;24.36;53.59;100792.84;2054353;28;3831;-81
2021/06/29 03:54:35;;;;;;;;;;;;;;;24.34;53.65;100776.06;2053175;28;4065;-81
2021/06/29 03:56:02;;;;;;;;;;;;;;;24.34;53.76;100776.06;2054043;28;4043;-82
2021/06/29 03:57:28;;;;;;;;;;;;;;;24.35;53.69;100782.63;2052935;28;3925;-82
2021/06/29 03:58:54;;;;;;;;;;;;;;;24.35;53.81;100777.72;2052766;28;4364;-82
2021/06/29 04:00:20;;;;;;;;;;;;;;;24.35;53.67;100779.75;2053506;28;4071;-82
2021/06/29 04:01:46;;;;;;;;;;;;;;;24.35;53.67;100777.72;2052811;28;4082;-82
2021/06/29 04:03:13;;;;;;;;;;;;;;;24.34;53.73;100773.22;2054085;28;3935;-81
2021/06/29 04:04:39;;;;;;;;;;;;;;;24.36;53.78;100781.41;2052443;28;4006;-85
2021/06/29 04:06:06;;;;;;;;;;;;;;;24.36;53.82;100782.22;2053276;28;3859;-87
2021/06/29 04:07:32;;;;;;;;;;;;;;;24.36;53.92;100775.69;2052921;28;4265;-86
2021/06/29 04:08:59;;;;;;;;;;;;;;;24.35;53.82;100789.16;2053547;28;4224;-87
2021/06/29 04:10:25;;;;;;;;;;;;;;;24.35;53.85;100783.44;2053496;28;4077;-86
2021/06/29 04:11:52;;;;;;;;;;;;;;;24.36;53.98;100781.41;2053877;28;4286;-87
2021/06/29 04:13:18;;;;;;;;;;;;;;;24.35;53.95;100789.16;2053349;28;3960;-86
2021/06/29 04:14:44;;;;;;;;;;;;;;;24.36;54.02;100781.41;2052994;28;4045;-85
2021/06/29 04:16:10;;;;;;;;;;;;;;;24.35;54.09;100783.44;2053444;28;4409;-86
2021/06/29 04:17:37;;;;;;;;;;;;;;;24.32;54.03;100781.34;2052970;28;3778;-86
2021/06/29 04:19:03;;;;;;;;;;;;;;;24.34;54.02;100776.06;2052096;28;4063;-88
2021/06/29 04:20:29;;;;;;;;;;;;;;;24.34;54.09;100778.94;2053836;28;4070;-79
2021/06/29 04:21:57;;;;;;;;;;;;;;;24.35;54.16;100779.75;2053243;28;4089;-78
2021/06/29 04:23:23;;;;;;;;;;;;;;;24.34;54.11;100783.81;2052720;28;3980;-76
2021/06/29 04:24:49;;;;;;;;;;;;;;;24.34;54.19;100784.66;2053237;28;4063;-77
2021/06/29 04:26:17;;;;;;;;;;;;;;;24.34;54.18;100790.38;2054280;28;3919;-75
2021/06/29 04:27:43;;;;;;;;;;;;;;;24.35;54.17;100776.91;2052910;28;4043;-77
2021/06/29 04:29:09;;;;;;;;;;;;;;;24.37;54.13;100788.75;2053240;28;4095;-77
2021/06/29 04:30:39;;;;;;;;;;;;;;;24.35;54.19;100768.31;2052994;28;4044;-77
2021/06/29 04:32:06;;;;;;;;;;;;;;;24.35;54.21;100766.28;2053206;28;3875;-77
2021/06/29 04:33:32;;;;;;;;;;;;;;;24.36;54.26;100762.22;2053672;28;3921;-77
2021/06/29 04:34:58;;;;;;;;;;;;;;;24.37;54.24;100766.75;2052823;28;4059;-77
2021/06/29 04:36:24;;;;;;;;;;;;;;;24.37;54.25;100763.88;2053111;28;3939;-77
2021/06/29 04:37:51;;;;;;;;;;;;;;;24.38;54.22;100767.56;2051663;28;4079;-77
2021/06/29 04:39:22;;;;;;;;;;;;;;;24.37;54.26;100761.03;2052038;28;4031;-77
2021/06/29 04:40:49;;;;;;;;;;;;;;;24.37;54.31;100763.88;2053126;28;4071;-77
2021/06/29 04:42:15;;;;;;;;;;;;;;;24.38;54.27;100761.84;2053457;28;3926;-77
2021/06/29 04:43:43;;;;;;;;;;;;;;;24.38;54.30;100754.09;2052447;28;4035;-79
2021/06/29 04:45:10;;;;;;;;;;;;;;;24.39;54.41;100760.63;2052244;28;4060;-81
2021/06/29 04:46:36;;;;;;;;;;;;;;;24.39;54.55;100757.75;2052347;28;3787;-79
2021/06/29 04:48:03;;;;;;;;;;;;;;;24.39;54.56;100764.31;2052445;28;4051;-78
2021/06/29 04:49:29;;;;;;;;;;;;;;;24.40;54.51;100762.28;2053463;28;3906;-77
2021/06/29 04:50:56;;;;;;;;;;;;;;;24.40;54.43;100762.28;2052589;28;4059;-78
2021/06/29 04:52:22;;;;;;;;;;;;;;;24.39;54.56;100761.44;2052056;28;3840;-77
2021/06/29 04:53:48;;;;;;;;;;;;;;;24.39;54.63;100764.31;2052762;28;4980;-77
2021/06/29 04:55:15;;;;;;;;;;;;;;;24.40;54.55;100763.13;2051946;28;3942;-77
2021/06/29 04:56:41;;;;;;;;;;;;;;;24.39;54.65;100767.16;2052643;28;4080;-83
2021/06/29 04:58:07;;;;;;;;;;;;;;;24.40;54.52;100760.25;2052655;28;3848;-83
2021/06/29 04:59:34;;;;;;;;;;;;;;;24.40;54.57;100771.69;2052649;28;3962;-80
2021/06/29 05:01:00;;;;;;;;;;;;;;;24.41;54.76;100772.53;2053064;28;4777;-80
2021/06/29 05:02:27;;;;;;;;;;;;;;;24.41;54.62;100766.81;2053459;28;3897;-81
2021/06/29 05:03:54;;;;;;;;;;;;;;;24.42;54.65;100774.16;2053100;28;4058;-78
2021/06/29 05:05:21;;;;;;;;;;;;;;;24.40;54.77;100777.41;2052786;28;3938;-76
2021/06/29 05:06:47;;;;;;;;;;;;;;;24.42;54.66;100777.03;2053291;28;4084;-80
2021/06/29 05:08:14;;;;;;;;;;;;;;;24.42;54.74;100782.75;2052565;28;4275;-75
2021/06/29 05:09:49;;;;;;;;;;;;;;;24.41;54.56;100775.38;2053291;28;4083;-76
2021/06/29 05:11:15;;;;;;;;;;;;;;;24.41;54.61;100779.06;2054486;28;3901;-81
2021/06/29 05:12:41;;;;;;;;;;;;;;;24.41;54.57;100773.34;2053334;28;4967;-79
2021/06/29 05:14:08;;;;;;;;;;;;;;;24.41;54.45;100784.78;2052981;28;3866;-76
2021/06/29 05:15:34;;;;;;;;;;;;;;;24.41;54.55;100781.91;2052550;28;3960;-78
2021/06/29 05:17:01;;;;;;;;;;;;;;;24.42;54.62;100780.72;2052854;28;4177;-78
2021/06/29 05:18:27;;;;;;;;;;;;;;;24.42;54.48;100779.88;2052712;28;3935;-79
2021/06/29 05:19:53;;;;;;;;;;;;;;;24.43;54.44;100785.28;2052395;28;4054;-78
2021/06/29 05:21:19;;;;;;;;;;;;;;;24.43;54.50;100782.41;2052457;28;3993;-78
2021/06/29 05:22:46;;;;;;;;;;;;;;;24.44;54.51;100783.22;2052743;28;4271;-78
2021/06/29 05:24:12;;;;;;;;;;;;;;;24.44;54.51;100774.66;2052866;28;4132;-78
2021/06/29 05:25:39;;;;;;;;;;;;;;;24.43;54.63;100776.69;2052688;28;3924;-78
2021/06/29 05:27:05;;;;;;;;;;;;;;;24.43;54.60;100779.53;2052512;28;4204;-79
2021/06/29 05:28:33;;;;;;;;;;;;;;;24.44;54.64;100789.78;2053161;28;4024;-78
2021/06/29 05:30:00;;;;;;;;;;;;;;;24.43;54.55;100782.41;2052199;28;4059;-78
2021/06/29 05:31:26;;;;;;;;;;;;;;;24.44;54.48;100786.09;2051489;28;3999;-79
2021/06/29 05:32:53;;;;;;;;;;;;;;;24.44;54.50;100784.06;2052903;28;4126;-78
2021/06/29 05:34:19;;;;;;;;;;;;;;;24.45;54.59;100787.72;2052287;28;4278;-78
2021/06/29 05:35:46;;;;;;;;;;;;;;;24.44;54.60;100795.50;2052394;28;4228;-78
2021/06/29 05:37:13;;;;;;;;;;;;;;;24.43;54.62;100793.84;2052153;28;3887;-78
2021/06/29 05:38:40;;;;;;;;;;;;;;;24.44;54.63;100789.78;2053131;28;4009;-78
2021/06/29 05:40:07;;;;;;;;;;;;;;;24.46;54.60;100791.44;2051634;28;4095;-79
2021/06/29 05:41:33;;;;;;;;;;;;;;;24.46;54.53;100791.44;2053030;28;4074;-79
2021/06/29 05:42:59;;;;;;;;;;;;;;;24.46;54.59;100785.72;2053131;28;4098;-79
2021/06/29 05:44:25;;;;;;;;;;;;;;;24.46;54.70;100782.88;2046056;28;3921;-78
2021/06/29 05:45:51;;;;;;;;;;;;;;;24.47;54.70;100773.06;2058235;28;4046;-78
2021/06/29 05:47:22;;;;;;;;;;;;;;;24.46;54.76;100780.81;2052006;28;3827;-77
2021/06/29 05:48:50;;;;;;;;;;;;;;;24.47;54.71;100781.66;2050757;28;4047;-78
2021/06/29 05:50:16;;;;;;;;;;;;;;;24.47;54.68;100778.78;2053069;28;3938;-72
2021/06/29 05:51:46;;;;;;;;;;;;;;;24.47;54.68;100781.66;2050251;28;4106;-76
2021/06/29 05:53:13;;;;;;;;;;;;;;;24.47;54.65;100776.75;2047075;28;4126;-78
2021/06/29 05:54:41;;;;;;;;;;;;;;;24.47;54.66;100776.75;2049997;28;4075;-77
2021/06/29 05:56:07;;;;;;;;;;;;;;;24.47;54.59;100775.94;2052087;28;3950;-77
2021/06/29 05:57:36;;;;;;;;;;;;;;;24.47;54.59;100768.16;2051280;28;4129;-74
2021/06/29 05:59:02;;;;;;;;;;;;;;;24.49;54.70;100782.09;2051956;28;4203;-77
2021/06/29 06:00:29;;;;;;;;;;;;;;;24.48;54.65;100771.84;2050871;28;3962;-77
2021/06/29 06:01:56;;;;;;;;;;;;;;;24.48;54.61;100780.44;2050787;28;4042;-76
2021/06/29 06:03:22;;;;;;;;;;;;;;;24.48;54.66;100778.44;2052338;28;3930;-76
2021/06/29 06:04:48;;;;;;;;;;;;;;;24.48;54.72;100777.56;2050863;28;4219;-76
2021/06/29 06:06:14;;;;;;;;;;;;;;;24.49;54.74;100779.25;2051289;28;4091;-75
2021/06/29 06:07:40;;;;;;;;;;;;;;;24.49;54.78;100774.34;2051896;28;4047;-75
2021/06/29 06:09:06;;;;;;;;;;;;;;;24.49;54.66;100776.38;2052398;28;4111;-75
2021/06/29 06:10:33;;;;;;;;;;;;;;;24.48;54.76;100775.56;2051767;28;3864;-75
2021/06/29 06:12:00;;;;;;;;;;;;;;;24.49;54.68;100767.81;2052296;28;4080;-75
2021/06/29 06:13:27;;;;;;;;;;;;;;;24.50;54.76;100769.44;2052173;28;4288;-75
2021/06/29 06:14:55;;;;;;;;;;;;;;;24.49;54.84;100768.63;2051340;28;4014;-80
2021/06/29 06:16:22;;;;;;;;;;;;;;;24.50;54.77;100770.28;2052169;28;3903;-80
2021/06/29 06:17:48;;;;;;;;;;;;;;;24.49;54.79;100762.91;2052599;28;4022;-79
2021/06/29 06:19:14;;;;;;;;;;;;;;;24.50;54.77;100766.59;2052619;28;3810;-78
2021/06/29 06:20:40;;;;;;;;;;;;;;;24.50;54.75;100763.72;2051753;28;5198;-78
2021/06/29 06:22:07;;;;;;;;;;;;;;;24.48;54.80;100757.56;2050422;28;3920;-76
2021/06/29 06:23:33;;;;;;;;;;;;;;;24.50;54.76;100761.69;2050999;28;3815;-76
2021/06/29 06:25:00;;;;;;;;;;;;;;;24.50;54.90;100760.88;2050323;28;4041;-76
2021/06/29 06:26:26;;;;;;;;;;;;;;;24.51;54.83;100762.50;2052084;28;4067;-76
2021/06/29 06:27:53;;;;;;;;;;;;;;;24.52;54.78;100761.31;2052292;28;4048;-76
2021/06/29 06:29:19;;;;;;;;;;;;;;;24.52;54.81;100759.28;2051346;28;3886;-76
2021/06/29 06:30:46;;;;;;;;;;;;;;;24.52;54.89;100767.88;2051498;28;4216;-76
2021/06/29 06:32:12;;;;;;;;;;;;;;;24.52;54.92;100767.03;2052604;28;3852;-76
2021/06/29 06:33:39;;;;;;;;;;;;;;;24.52;54.72;100761.31;2049362;28;4131;-76
2021/06/29 06:35:08;;;;;;;;;;;;;;;24.52;54.91;100756.44;2049611;28;3938;-76
2021/06/29 06:36:35;;;;;;;;;;;;;;;24.52;54.81;100752.75;2047373;28;3992;-76
2021/06/29 06:38:02;;;;;;;;;;;;;;;24.53;54.93;100751.53;2051050;28;4050;-77
2021/06/29 06:39:29;;;;;;;;;;;;;;;24.53;54.89;100762.97;2051554;28;4086;-77
2021/06/29 06:40:56;;;;;;;;;;;;;;;24.53;54.82;100757.25;2050838;28;4079;-72
2021/06/29 06:42:22;;;;;;;;;;;;;;;24.53;54.96;100754.38;2048591;28;3946;-76
2021/06/29 06:43:51;;;;;;;;;;;;;;;24.53;54.95;100754.38;2050908;28;4237;-73
2021/06/29 06:45:22;;;;;;;;;;;;;;;24.53;55.01;100751.53;2049025;28;3965;-75
2021/06/29 06:46:48;;;;;;;;;;;;;;;24.53;54.98;100746.63;2050322;28;4062;-73
2021/06/29 06:48:14;;;;;;;;;;;;;;;24.55;54.92;100743.41;2052758;28;3922;-73
2021/06/29 06:49:41;;;;;;;;;;;;;;;24.54;54.90;100739.72;2050909;28;4070;-72
2021/06/29 06:51:08;;;;;;;;;;;;;;;24.54;54.92;100747.47;2051342;28;3897;-73
2021/06/29 06:52:35;;;;;;;;;;;;;;;24.55;54.97;100735.63;2052743;28;3905;-71
2021/06/29 06:54:02;;;;;;;;;;;;;;;24.54;55.07;100753.19;2049419;28;4069;-74
2021/06/29 06:55:29;;;;;;;;;;;;;;;24.54;55.07;100739.72;2049875;28;3889;-74
2021/06/29 06:56:56;;;;;;;;;;;;;;;24.54;55.09;100748.31;2051452;28;4081;-75
2021/06/29 06:58:22;;;;;;;;;;;;;;;24.55;55.17;100743.41;2050532;28;3994;-80
2021/06/29 06:59:48;;;;;;;;;;;;;;;24.55;55.15;100747.06;2049825;28;5469;-76
2021/06/29 07:01:16;;;;;;;;;;;;;;;24.56;55.25;100739.31;2049214;28;3851;-78
2021/06/29 07:02:44;;;;;;;;;;;;;;;24.55;55.14;100731.97;2050678;28;4059;-78
2021/06/29 07:04:12;;;;;;;;;;;;;;;24.56;55.22;100742.19;2049123;28;3935;-77
2021/06/29 07:05:38;;;;;;;;;;;;;;;24.56;55.29;100740.13;2051216;28;5403;-77
2021/06/29 07:07:04;;;;;;;;;;;;;;;24.57;55.33;100738.97;2049596;28;4228;-77
2021/06/29 07:08:31;;;;;;;;;;;;;;;24.57;55.22;100738.13;2050833;28;3930;-77
2021/06/29 07:09:57;;;;;;;;;;;;;;;24.56;55.32;100740.13;2053708;28;4271;-77
2021/06/29 07:11:23;;;;;;;;;;;;;;;24.57;55.25;100743.84;2051569;28;3900;-77
2021/06/29 07:12:49;;;;;;;;;;;;;;;24.57;55.34;100743.84;2052513;28;4105;-77
2021/06/29 07:14:15;;;;;;;;;;;;;;;24.57;55.40;100747.53;2052649;28;3909;-77
2021/06/29 07:15:42;;;;;;;;;;;;;;;24.57;55.39;100741.00;2052875;28;4039;-76
2021/06/29 07:17:09;;;;;;;;;;;;;;;24.58;55.34;100736.91;2053567;28;3979;-76
2021/06/29 07:18:36;;;;;;;;;;;;;;;24.58;55.38;100745.50;2050240;28;3996;-76
2021/06/29 07:20:03;;;;;;;;;;;;;;;24.57;55.37;100738.97;2052911;28;4098;-76
2021/06/29 07:21:29;;;;;;;;;;;;;;;24.58;55.41;100743.47;2052028;28;3935;-76
2021/06/29 07:22:56;;;;;;;;;;;;;;;24.58;55.46;100734.88;2053010;28;4233;-76
2021/06/29 07:24:22;;;;;;;;;;;;;;;24.59;55.36;100744.28;2052858;28;4071;-75
2021/06/29 07:25:49;;;;;;;;;;;;;;;24.58;55.37;100746.31;2051896;28;4080;-79
2021/06/29 07:27:15;;;;;;;;;;;;;;;24.59;55.38;100744.28;2053528;28;3924;-77
2021/06/29 07:28:42;;;;;;;;;;;;;;;24.59;55.41;100738.56;2051586;28;4078;-79
2021/06/29 07:30:09;;;;;;;;;;;;;;;24.59;55.48;100739.41;2052956;28;3931;-73
2021/06/29 07:31:36;;;;;;;;;;;;;;;24.59;55.51;100744.28;2049622;28;4187;-85
2021/06/29 07:33:03;;;;;;;;;;;;;;;24.59;55.43;100742.28;2051735;28;4243;-73
2021/06/29 07:34:30;;;;;;;;;;;;;;;24.59;55.43;100748.00;2049884;28;3962;-74
2021/06/29 07:35:56;;;;;;;;;;;;;;;24.59;55.52;100739.41;2050749;28;4111;-79
2021/06/29 07:37:22;;;;;;;;;;;;;;;24.60;55.54;100743.09;2052727;28;3950;-82
2021/06/29 07:38:53;;;;;;;;;;;;;;;24.59;55.53;100742.28;2052585;28;4067;-77
2021/06/29 07:40:20;;;;;;;;;;;;;;;24.60;55.60;100738.19;2053038;28;4083;-77
2021/06/29 07:41:47;;;;;;;;;;;;;;;24.60;55.44;100740.22;2050724;28;4049;-77
2021/06/29 07:43:13;;;;;;;;;;;;;;;24.61;55.47;100747.59;2051340;28;3929;-76
2021/06/29 07:44:39;;;;;;;;;;;;;;;24.61;55.46;100744.72;2051564;28;4065;-77
2021/06/29 07:46:05;;;;;;;;;;;;;;;24.60;55.50;100734.50;2050644;28;3919;-76
2021/06/29 07:47:31;;;;;;;;;;;;;;;24.60;55.46;100740.22;2053065;28;3884;-76